If you wish to contribute or participate in the discussions about articles you are invited to join SKYbrary as a registered user

 Actions

Izumo Airport

From SKYbrary Wiki

RJOC
Airport
ICAO: RJOC – IATA: IZO
Summary
Name Izumo Airport
Region Asia and Pacific
Territory Japan JP.gif
Location Izumo, Shimane
Serving Izumo
Elevation 1.829 m
6 ft1.829 m
Coordinates 35° 24' 47.89" N, 132° 53' 20.89" E
Runways
Designator Length Width Surface ROPS
7/25 2000 m6,561.68 ft
45 m147.638 ft
ASP yes/yes


METAR
Observation RJOC 180800Z 03010KT 9999 FEW030 SCT160 BKN/// 25/14 Q1013
Station Izumo Airport
Date/Time 18 September 2019 08:00:00
Wind direction 30°
Wind speed 10 kts
Lowest cloud amount few clouds
Temperature 25°C
Dew point 14°C
Humidity 50%
QNH 1013 hPa
Weather condition n/a

Izumo Airport is an airport in Izumo, Shimane Prefecture, Japan

Climatology

Humid Sub-tropical climate (Köppen climate classification Cwa) - Hot humid summers and cooler winter. Significant precipitation in all seasons but drier in the winter.

Maps

Terrain

Loading map...

Airport Layout

Loading map...


Accidents & Serious Incidents at or in vicinity of RJOC

  • SF34, Izumo Japan, 2007 (On 10 December, 2007 a SAAB 340B being operated by Japan Air Commuter on a scheduled passenger flight left the runway at Izumo Airport during the daylight landing roll in normal visibility and continued further while veering to the right before coming to a stop on the airport apron.)